createdAt,value
2018-09-25T00:01:24.100Z,7.40
2018-09-25T00:04:32.785Z,7.53
2018-09-25T00:07:41.427Z,7.52
2018-09-25T00:10:50.460Z,7.50
2018-09-25T00:13:59.367Z,7.54
2018-09-25T00:17:08.057Z,7.70
2018-09-25T00:20:16.711Z,7.92
2018-09-25T00:23:25.408Z,8.09
2018-09-25T00:26:34.118Z,7.94
2018-09-25T00:29:42.949Z,7.74
2018-09-25T00:32:51.775Z,7.64
2018-09-25T00:36:00.600Z,7.67
2018-09-25T00:39:09.574Z,7.73
2018-09-25T00:42:18.331Z,7.68
2018-09-25T00:45:27.075Z,7.74
2018-09-25T00:48:35.807Z,7.42
2018-09-25T00:51:44.480Z,7.53
2018-09-25T00:54:53.290Z,7.65
2018-09-25T00:58:01.974Z,7.65
2018-09-25T01:01:10.650Z,7.78
2018-09-25T01:04:19.455Z,7.84
2018-09-25T01:07:28.142Z,7.85
2018-09-25T01:10:36.947Z,7.76
2018-09-25T01:13:45.765Z,7.73
2018-09-25T01:16:54.469Z,7.69
2018-09-25T01:20:03.369Z,7.50
2018-09-25T01:23:12.327Z,7.24
2018-09-25T01:26:21.107Z,7.15
2018-09-25T01:29:29.807Z,6.93
2018-09-25T01:32:38.512Z,6.76
2018-09-25T01:35:47.188Z,6.70
2018-09-25T01:38:55.948Z,6.65
2018-09-25T01:42:04.603Z,6.66
2018-09-25T01:45:13.365Z,6.64
2018-09-25T01:48:22.296Z,6.53
2018-09-25T01:51:31.073Z,6.49
2018-09-25T01:54:39.793Z,6.40
2018-09-25T01:57:48.622Z,6.41
2018-09-25T02:00:57.363Z,6.40
2018-09-25T02:04:06.066Z,6.38
2018-09-25T02:07:14.783Z,6.45
2018-09-25T02:10:23.507Z,6.49
2018-09-25T02:13:32.331Z,6.40
2018-09-25T02:16:41.165Z,6.52
2018-09-25T02:19:50.026Z,6.71
2018-09-25T02:22:58.738Z,6.87
2018-09-25T02:26:07.606Z,7.00
2018-09-25T02:29:16.522Z,6.97
2018-09-25T02:32:25.371Z,6.73
2018-09-25T02:35:34.336Z,6.74
2018-09-25T02:38:43.058Z,6.69
2018-09-25T02:41:51.727Z,6.82
2018-09-25T02:45:00.474Z,6.65
2018-09-25T02:48:09.212Z,6.58
2018-09-25T02:51:18.236Z,6.48
2018-09-25T02:54:27.016Z,6.39
2018-09-25T02:57:35.696Z,6.31
2018-09-25T03:00:44.496Z,6.41
2018-09-25T03:03:53.392Z,6.30
2018-09-25T03:07:02.772Z,6.49
2018-09-25T03:10:11.916Z,6.41
2018-09-25T03:13:20.781Z,6.33
2018-09-25T03:16:29.671Z,6.26
2018-09-25T03:19:38.382Z,6.22
2018-09-25T03:22:47.060Z,6.15
2018-09-25T03:25:55.867Z,6.22
2018-09-25T03:29:04.679Z,6.10
2018-09-25T03:32:13.487Z,6.10
2018-09-25T03:35:22.258Z,6.13
2018-09-25T03:38:31.170Z,6.19
2018-09-25T03:41:40.099Z,6.16
2018-09-25T03:44:48.843Z,5.99
2018-09-25T03:47:57.664Z,6.06
2018-09-25T03:51:06.459Z,6.00
2018-09-25T03:54:15.503Z,6.09
2018-09-25T03:57:24.375Z,6.05
2018-09-25T04:00:33.134Z,6.02
2018-09-25T04:03:41.929Z,6.02
2018-09-25T04:06:50.683Z,5.93
2018-09-25T04:09:59.493Z,5.96
2018-09-25T04:13:08.359Z,5.99
2018-09-25T04:16:17.160Z,5.94
2018-09-25T04:19:25.953Z,5.93
2018-09-25T04:22:34.724Z,5.87
2018-09-25T04:25:43.601Z,5.91
2018-09-25T04:28:52.463Z,5.87
2018-09-25T04:32:01.275Z,5.85
2018-09-25T04:35:10.294Z,6.04
2018-09-25T04:38:19.008Z,6.14
2018-09-25T04:41:27.789Z,6.25
2018-09-25T04:44:36.647Z,6.27
2018-09-25T04:47:45.631Z,6.25
2018-09-25T04:50:54.363Z,6.21
2018-09-25T04:54:03.368Z,6.25
2018-09-25T04:57:12.346Z,6.25
2018-09-25T05:00:21.083Z,6.34
2018-09-25T05:03:29.850Z,6.36
2018-09-25T05:06:38.629Z,6.40
2018-09-25T05:09:47.370Z,6.41
2018-09-25T05:12:56.155Z,6.33
2018-09-25T05:16:05.013Z,6.20
2018-09-25T05:19:13.704Z,6.19
2018-09-25T05:22:22.511Z,6.19
2018-09-25T05:25:31.250Z,6.07
2018-09-25T05:28:40.136Z,6.08
2018-09-25T05:31:49.109Z,6.13
2018-09-25T05:34:58.025Z,6.13
2018-09-25T05:38:06.685Z,6.09
2018-09-25T05:41:15.400Z,6.10
2018-09-25T05:44:24.134Z,6.23
2018-09-25T05:47:33.042Z,6.21
2018-09-25T05:50:41.720Z,6.33
2018-09-25T05:53:50.579Z,6.84
2018-09-25T05:56:59.364Z,7.53
2018-09-25T06:00:07.971Z,8.05
2018-09-25T06:03:16.863Z,8.15
2018-09-25T06:06:25.685Z,8.35
2018-09-25T06:09:34.551Z,8.43
2018-09-25T06:12:43.205Z,8.33
2018-09-25T06:15:52.081Z,8.41
2018-09-25T06:19:00.810Z,8.58
2018-09-25T06:22:09.580Z,8.50
2018-09-25T06:25:18.216Z,8.48
2018-09-25T06:28:26.993Z,8.46
2018-09-25T06:31:35.708Z,8.38
2018-09-25T06:34:44.590Z,8.29
2018-09-25T06:37:53.246Z,8.09
2018-09-25T06:41:02.138Z,8.34
2018-09-25T06:44:10.651Z,8.70
2018-09-25T06:47:19.401Z,8.48
2018-09-25T06:50:28.090Z,8.45
2018-09-25T06:53:36.809Z,8.57
2018-09-25T06:56:45.550Z,8.79
2018-09-25T06:59:54.518Z,8.76
2018-09-25T07:03:03.373Z,8.58
2018-09-25T07:06:12.096Z,8.83
2018-09-25T07:09:20.901Z,8.75
2018-09-25T07:12:29.642Z,8.66
2018-09-25T07:15:38.407Z,8.79
2018-09-25T07:18:47.209Z,8.65
2018-09-25T07:21:55.970Z,8.76
2018-09-25T07:25:04.852Z,8.92
2018-09-25T07:28:13.580Z,9.01
2018-09-25T07:31:22.412Z,8.97
2018-09-25T07:34:31.227Z,8.76
2018-09-25T07:37:39.995Z,8.95
2018-09-25T07:40:48.738Z,9.08
2018-09-25T07:43:57.437Z,8.87
2018-09-25T07:47:06.253Z,9.05
2018-09-25T07:50:15.015Z,9.20
2018-09-25T07:53:23.822Z,9.04
2018-09-25T07:56:32.776Z,9.02
2018-09-25T07:59:41.568Z,9.06
2018-09-25T08:02:50.341Z,9.22
2018-09-25T08:05:59.122Z,9.36
2018-09-25T08:09:07.975Z,9.26
2018-09-25T08:12:16.636Z,9.36
2018-09-25T08:15:25.610Z,9.53
2018-09-25T08:18:34.427Z,9.50
2018-09-25T08:21:43.228Z,9.47
2018-09-25T08:24:52.100Z,9.55
2018-09-25T08:28:00.836Z,9.50
2018-09-25T08:31:09.593Z,9.51
2018-09-25T08:34:18.620Z,9.45
2018-09-25T08:37:27.391Z,9.55
2018-09-25T08:40:36.256Z,9.41
2018-09-25T08:43:45.042Z,9.59
2018-09-25T08:46:53.877Z,9.62
2018-09-25T08:50:02.561Z,9.69
2018-09-25T08:53:11.533Z,9.78
2018-09-25T08:56:20.364Z,10.00
2018-09-25T08:59:29.129Z,10.03
2018-09-25T09:02:37.866Z,9.97
2018-09-25T09:05:46.536Z,10.00
2018-09-25T09:08:55.356Z,9.83
2018-09-25T09:12:04.211Z,10.13
2018-09-25T09:15:12.984Z,10.15
2018-09-25T09:18:21.768Z,10.15
2018-09-25T09:21:30.602Z,10.25
2018-09-25T09:24:39.310Z,10.25
2018-09-25T09:27:48.188Z,10.37
2018-09-25T09:30:56.968Z,10.40
2018-09-25T09:34:05.806Z,10.52
2018-09-25T09:37:14.528Z,10.60
2018-09-25T09:40:23.228Z,10.52
2018-09-25T09:43:32.018Z,10.66
2018-09-25T09:46:40.729Z,10.63
2018-09-25T09:49:49.812Z,10.86
2018-09-25T09:52:58.563Z,10.89
2018-09-25T09:56:07.305Z,10.94
2018-09-25T09:59:16.059Z,10.86
2018-09-25T10:02:24.875Z,10.90
2018-09-25T10:05:33.633Z,11.04
2018-09-25T10:08:42.527Z,11.26
2018-09-25T10:11:51.250Z,11.14
2018-09-25T10:15:00.103Z,11.16
2018-09-25T10:18:08.861Z,11.31
2018-09-25T10:21:17.686Z,11.44
2018-09-25T10:24:26.403Z,11.70
2018-09-25T10:27:35.459Z,11.84
2018-09-25T10:30:44.448Z,11.73
2018-09-25T10:33:53.226Z,11.76
2018-09-25T10:37:02.271Z,11.70
2018-09-25T10:40:11.067Z,11.71
2018-09-25T10:43:19.919Z,12.06
2018-09-25T10:46:28.787Z,11.91
2018-09-25T10:49:37.513Z,12.00
2018-09-25T10:52:46.417Z,11.93
2018-09-25T10:55:55.303Z,11.91
2018-09-25T10:59:03.997Z,12.43
2018-09-25T11:02:12.929Z,12.47
2018-09-25T11:05:21.667Z,12.59
2018-09-25T11:08:30.503Z,13.10
2018-09-25T11:11:39.294Z,13.68
2018-09-25T11:14:48.075Z,13.62
2018-09-25T11:17:56.699Z,14.00
2018-09-25T11:21:05.480Z,13.93
2018-09-25T11:24:14.472Z,13.60
2018-09-25T11:27:23.297Z,13.46
2018-09-25T11:30:32.249Z,13.31
2018-09-25T11:33:41.035Z,13.43
2018-09-25T11:36:49.815Z,13.66
2018-09-25T11:39:58.603Z,13.86
2018-09-25T11:43:07.469Z,13.61
2018-09-25T11:46:16.266Z,13.56
2018-09-25T11:49:25.045Z,13.85
2018-09-25T11:52:34.067Z,13.66
2018-09-25T11:55:42.790Z,13.53
2018-09-25T11:58:51.583Z,13.38
2018-09-25T12:02:00.287Z,13.27
2018-09-25T12:05:09.109Z,13.47
2018-09-25T12:08:18.004Z,13.77
2018-09-25T12:11:26.760Z,13.61
2018-09-25T12:14:35.705Z,13.60
2018-09-25T12:17:44.418Z,13.44
2018-09-25T12:20:53.048Z,13.15
2018-09-25T12:24:01.859Z,13.24
2018-09-25T12:27:10.548Z,13.23
2018-09-25T12:30:19.268Z,13.45
2018-09-25T12:33:28.077Z,13.46
2018-09-25T12:36:36.848Z,13.26
2018-09-25T12:39:45.820Z,13.08
2018-09-25T12:42:54.751Z,12.99
2018-09-25T12:46:03.659Z,12.94
2018-09-25T12:49:13.015Z,12.86
2018-09-25T12:52:21.689Z,13.03
2018-09-25T12:55:30.531Z,13.06
2018-09-25T12:58:39.329Z,13.17
2018-09-25T13:01:48.041Z,13.49
2018-09-25T13:04:56.868Z,13.82
2018-09-25T13:08:05.635Z,13.90
2018-09-25T13:11:14.350Z,13.90
2018-09-25T13:14:23.139Z,14.04
2018-09-25T13:17:32.046Z,13.91
2018-09-25T13:20:40.841Z,13.79
2018-09-25T13:23:49.779Z,13.65
2018-09-25T13:26:58.714Z,13.65
2018-09-25T13:30:07.917Z,13.64
2018-09-25T13:33:17.485Z,13.63
2018-09-25T13:36:26.270Z,13.56
2018-09-25T13:39:35.086Z,13.61
2018-09-25T13:42:43.916Z,13.80
2018-09-25T13:45:53.000Z,13.86
2018-09-25T13:49:01.889Z,13.86
2018-09-25T13:52:10.890Z,13.93
2018-09-25T13:55:24.980Z,14.03
2018-09-25T13:58:33.994Z,14.11
2018-09-25T14:01:43.576Z,14.19
2018-09-25T14:04:52.476Z,14.19
2018-09-25T14:08:01.877Z,14.19
2018-09-25T14:11:10.951Z,14.24
2018-09-25T14:14:20.496Z,14.39
2018-09-25T14:17:29.256Z,14.03
2018-09-25T14:20:38.249Z,14.14
2018-09-25T14:23:47.568Z,14.14
2018-09-25T14:26:56.460Z,14.12
2018-09-25T14:30:14.191Z,13.88
2018-09-25T14:33:23.862Z,14.09
2018-09-25T14:36:33.128Z,14.05
2018-09-25T14:39:41.897Z,14.28
2018-09-25T14:42:51.432Z,14.44
2018-09-25T14:46:00.282Z,14.48
2018-09-25T14:49:09.316Z,14.37
2018-09-25T14:52:18.517Z,14.33
2018-09-25T14:55:27.614Z,14.29
2018-09-25T14:58:36.433Z,14.30
2018-09-25T15:01:45.376Z,14.28
2018-09-25T15:04:54.227Z,14.36
2018-09-25T15:08:03.111Z,14.57
2018-09-25T15:11:11.946Z,14.69
2018-09-25T15:14:20.926Z,14.64
2018-09-25T15:17:29.654Z,14.74
2018-09-25T15:20:38.509Z,14.50
2018-09-25T15:23:47.425Z,14.32
2018-09-25T15:26:56.283Z,14.17
2018-09-25T15:33:37.177Z,13.93
2018-09-25T15:36:45.980Z,13.81
2018-09-25T15:39:54.813Z,13.80
2018-09-25T15:43:03.589Z,13.66
2018-09-25T15:46:12.584Z,13.65
2018-09-25T15:49:21.678Z,13.40
2018-09-25T15:52:30.673Z,13.26
2018-09-25T15:55:39.719Z,13.04
2018-09-25T15:58:48.527Z,12.89
2018-09-25T16:01:57.465Z,12.76
2018-09-25T16:05:06.062Z,12.47
2018-09-25T16:08:15.415Z,12.22
2018-09-25T16:11:24.376Z,11.98
2018-09-25T16:14:33.411Z,11.89
2018-09-25T16:17:42.081Z,11.83
2018-09-25T16:20:50.859Z,11.88
2018-09-25T16:23:59.576Z,11.66
2018-09-25T16:27:08.543Z,11.53
2018-09-25T16:30:17.288Z,11.40
2018-09-25T16:33:26.147Z,11.37
2018-09-25T16:36:35.126Z,11.38
2018-09-25T16:39:44.151Z,11.40
2018-09-25T16:42:53.161Z,11.41
2018-09-25T16:46:01.994Z,11.39
2018-09-25T16:49:10.872Z,11.27
2018-09-25T16:52:19.707Z,11.12
2018-09-25T16:55:28.523Z,11.10
2018-09-25T16:58:37.261Z,11.07
2018-09-25T17:01:46.009Z,10.99
2018-09-25T17:04:54.723Z,11.03
2018-09-25T17:08:03.660Z,10.97
2018-09-25T17:11:12.603Z,10.99
2018-09-25T17:14:21.356Z,10.89
2018-09-25T17:17:31.496Z,10.73
2018-09-25T17:20:40.299Z,10.63
2018-09-25T17:23:51.974Z,10.54
2018-09-25T17:27:00.963Z,10.52
2018-09-25T17:30:10.288Z,10.45
2018-09-25T17:33:19.029Z,10.37
2018-09-25T17:36:27.808Z,10.34
2018-09-25T17:39:36.720Z,10.30
2018-09-25T17:42:45.588Z,10.29
2018-09-25T17:45:54.702Z,10.25
2018-09-25T17:49:03.853Z,10.24
2018-09-25T17:52:13.145Z,10.10
2018-09-25T17:55:21.929Z,9.88
2018-09-25T17:58:30.634Z,9.71
2018-09-25T18:01:39.672Z,9.59
2018-09-25T18:04:48.474Z,9.57
2018-09-25T18:07:57.380Z,9.60
2018-09-25T18:11:06.256Z,9.75
2018-09-25T18:14:15.969Z,9.60
2018-09-25T18:17:24.942Z,9.62
2018-09-25T18:20:33.738Z,9.57
2018-09-25T18:23:42.779Z,9.62
2018-09-25T18:26:51.720Z,9.62
2018-09-25T18:30:00.726Z,9.57
2018-09-25T18:33:09.605Z,9.56
2018-09-25T18:36:18.558Z,9.54
2018-09-25T18:39:27.528Z,9.40
2018-09-25T18:42:36.499Z,9.32
2018-09-25T18:45:45.493Z,9.18
2018-09-25T18:48:54.236Z,9.21
2018-09-25T18:52:03.286Z,9.14
2018-09-25T18:55:12.261Z,9.12
2018-09-25T18:58:21.005Z,9.20
2018-09-25T19:01:30.029Z,9.25
2018-09-25T19:04:39.103Z,9.19
2018-09-25T19:07:47.972Z,9.16
2018-09-25T19:10:56.834Z,9.02
2018-09-25T19:14:05.684Z,8.88
2018-09-25T19:17:14.520Z,8.73
2018-09-25T19:20:23.407Z,8.70
2018-09-25T19:23:32.393Z,8.55
2018-09-25T19:26:41.477Z,8.52
2018-09-25T19:29:50.259Z,8.51
2018-09-25T19:32:59.134Z,8.65
2018-09-25T19:36:08.211Z,8.53
2018-09-25T19:39:17.098Z,8.57
2018-09-25T19:42:25.892Z,8.45
2018-09-25T19:45:34.812Z,8.39
2018-09-25T19:48:43.594Z,8.28
2018-09-25T19:51:52.492Z,8.23
2018-09-25T19:55:01.285Z,8.22
2018-09-25T19:58:09.980Z,8.33
2018-09-25T20:01:19.039Z,8.33
2018-09-25T20:04:27.940Z,8.33
2018-09-25T20:07:36.976Z,8.33
2018-09-25T20:10:45.725Z,8.33
2018-09-25T20:13:54.545Z,8.32
2018-09-25T20:17:03.296Z,8.45
2018-09-25T20:20:12.267Z,8.30
2018-09-25T20:23:21.289Z,8.20
2018-09-25T20:26:30.197Z,8.15
2018-09-25T20:29:39.101Z,8.08
2018-09-25T20:32:48.732Z,8.03
2018-09-25T20:35:57.537Z,8.07
2018-09-25T20:39:06.390Z,8.08
2018-09-25T20:42:15.218Z,8.06
2018-09-25T20:45:28.545Z,8.11
2018-09-25T20:48:37.488Z,7.99
2018-09-25T20:51:46.377Z,7.98
2018-09-25T20:54:55.386Z,8.06
2018-09-25T20:58:04.169Z,7.97
2018-09-25T21:01:12.928Z,7.97
2018-09-25T21:04:21.814Z,7.99
2018-09-25T21:07:30.606Z,7.99
2018-09-25T21:10:39.729Z,8.00
2018-09-25T21:13:48.574Z,8.04
2018-09-25T21:16:57.408Z,8.00
2018-09-25T21:20:06.216Z,8.02
2018-09-25T21:23:15.177Z,8.04
2018-09-25T21:26:23.933Z,7.96
2018-09-25T21:29:32.727Z,7.97
2018-09-25T21:32:41.679Z,8.05
2018-09-25T21:35:50.422Z,8.05
2018-09-25T21:38:59.152Z,8.06
2018-09-25T21:42:07.923Z,8.07
2018-09-25T21:45:16.627Z,8.18
2018-09-25T21:48:25.239Z,8.14
2018-09-25T21:51:34.071Z,8.08
2018-09-25T21:54:42.660Z,8.24
2018-09-25T21:57:51.650Z,8.18
2018-09-25T22:01:00.476Z,8.00
2018-09-25T22:04:09.351Z,8.04
2018-09-25T22:07:18.316Z,8.02
2018-09-25T22:10:27.014Z,7.99
2018-09-25T22:13:35.751Z,7.90
2018-09-25T22:16:44.576Z,7.93
2018-09-25T22:19:53.192Z,7.81
2018-09-25T22:23:01.916Z,7.82
2018-09-25T22:26:10.651Z,7.78
2018-09-25T22:29:19.326Z,7.82
2018-09-25T22:32:28.090Z,7.76
2018-09-25T22:35:36.801Z,7.79
2018-09-25T22:38:45.576Z,7.64
2018-09-25T22:41:54.286Z,7.62
2018-09-25T22:45:03.076Z,7.59
2018-09-25T22:48:11.916Z,7.56
2018-09-25T22:51:20.800Z,7.48
2018-09-25T22:54:29.851Z,7.40
2018-09-25T22:57:38.746Z,7.42
2018-09-25T23:00:47.446Z,7.31
2018-09-25T23:03:56.331Z,7.41
2018-09-25T23:07:06.041Z,7.30
2018-09-25T23:10:14.952Z,7.23
2018-09-25T23:13:23.650Z,7.22
2018-09-25T23:16:32.402Z,7.26
2018-09-25T23:19:41.337Z,7.24
2018-09-25T23:22:50.162Z,7.17
2018-09-25T23:25:59.065Z,7.29
2018-09-25T23:29:07.995Z,7.34
2018-09-25T23:32:16.697Z,7.42
2018-09-25T23:35:25.441Z,7.38
2018-09-25T23:38:34.134Z,7.33
2018-09-25T23:43:45.599Z,7.30
2018-09-25T23:46:55.436Z,7.10
2018-09-25T23:50:03.182Z,7.00
2018-09-25T23:53:16.007Z,7.02
2018-09-25T23:56:56.756Z,6.96
